Time;durP1;ratioP1;P1;durP2;ratioP2;P2;SDS_P1;SDS_P2;PMS_P1;PMS_P2;Temp;Humidity;BMP_temperature;BMP_pressure;BME280_temperature;BME280_humidity;BME280_pressure;Samples;Min_cycle;Max_cycle;Signal;HPM_P1;HPM_P2
2023/08/17 00:00:08;;;;;;;9.27;6.75;;;;;;;;;;4975923;28;20230;-47
2023/08/17 00:02:55;;;;;;;12.55;7.93;;;;;;;;;;4977836;28;20207;-50
2023/08/17 00:05:22;;;;;;;15.10;8.38;;;;;;;;;;4977528;28;20198;-47
2023/08/17 00:07:49;;;;;;;13.80;8.80;;;;;;;;;;4977658;28;20580;-47
2023/08/17 00:10:17;;;;;;;18.38;9.70;;;;;;;;;;4977453;28;20214;-47
2023/08/17 00:12:44;;;;;;;12.27;9.90;;;;;;;;;;4977491;28;20238;-47
2023/08/17 00:15:11;;;;;;;11.00;8.65;;;;;;;;;;4977345;28;20207;-49
2023/08/17 00:17:38;;;;;;;12.45;8.68;;;;;;;;;;4977505;28;20591;-47
2023/08/17 00:20:06;;;;;;;11.18;8.85;;;;;;;;;;4977425;28;20596;-55
2023/08/17 00:22:33;;;;;;;10.50;8.60;;;;;;;;;;4977287;28;20206;-53
2023/08/17 00:25:04;;;;;;;13.57;8.23;;;;;;;;;;4991494;28;20202;-48
2023/08/17 00:27:34;;;;;;;13.35;9.13;;;;;;;;;;4977170;28;20207;-47
2023/08/17 00:30:02;;;;;;;11.48;8.77;;;;;;;;;;4976252;28;20277;-47
2023/08/17 00:32:28;;;;;;;14.57;8.20;;;;;;;;;;4977045;28;20293;-46
2023/08/17 00:34:56;;;;;;;12.77;8.85;;;;;;;;;;4975850;28;20663;-48
2023/08/17 00:37:23;;;;;;;11.95;8.82;;;;;;;;;;4976983;28;20214;-46
2023/08/17 00:39:50;;;;;;;11.80;8.98;;;;;;;;;;4975918;28;20226;-49
2023/08/17 00:42:17;;;;;;;13.13;8.90;;;;;;;;;;4975634;28;20207;-48
2023/08/17 00:44:45;;;;;;;13.68;9.65;;;;;;;;;;4976821;28;20214;-48
2023/08/17 00:47:12;;;;;;;16.08;8.85;;;;;;;;;;4976910;28;20237;-47
2023/08/17 00:49:40;;;;;;;13.90;9.18;;;;;;;;;;4976934;28;20219;-47
2023/08/17 00:52:07;;;;;;;13.13;9.00;;;;;;;;;;4975640;28;20567;-48
2023/08/17 00:54:35;;;;;;;14.65;9.80;;;;;;;;;;4976705;28;20206;-48
2023/08/17 00:57:06;;;;;;;13.23;10.15;;;;;;;;;;4976539;28;20297;-49
2023/08/17 00:59:33;;;;;;;14.60;9.40;;;;;;;;;;4976603;28;20245;-49
2023/08/17 01:02:03;;;;;;;14.25;10.25;;;;;;;;;;4976749;28;20257;-49
2023/08/17 01:04:31;;;;;;;15.73;9.75;;;;;;;;;;4976487;28;20622;-48
2023/08/17 01:06:58;;;;;;;17.52;10.48;;;;;;;;;;4975207;28;20199;-48
2023/08/17 01:09:26;;;;;;;17.70;9.93;;;;;;;;;;4975128;28;20573;-47
2023/08/17 01:12:08;;;;;;;17.65;9.80;;;;;;;;;;4974970;28;20234;-47
2023/08/17 01:14:35;;;;;;;14.20;10.13;;;;;;;;;;4975215;28;20660;-48
2023/08/17 01:17:29;;;;;;;15.18;10.43;;;;;;;;;;4976213;28;20219;-53
2023/08/17 01:19:58;;;;;;;16.80;10.23;;;;;;;;;;4972120;28;20242;-51
2023/08/17 01:22:26;;;;;;;17.65;10.48;;;;;;;;;;4975972;28;20199;-49
2023/08/17 01:24:59;;;;;;;20.05;9.90;;;;;;;;;;4975076;28;20218;-48
2023/08/17 01:27:32;;;;;;;13.50;9.88;;;;;;;;;;4974991;28;20269;-47
2023/08/17 01:30:00;;;;;;;17.27;10.63;;;;;;;;;;4976022;28;20222;-47
2023/08/17 01:32:31;;;;;;;12.38;9.63;;;;;;;;;;4974671;28;20198;-47
2023/08/17 01:35:08;;;;;;;15.23;10.45;;;;;;;;;;4959265;28;20206;-47
2023/08/17 01:37:37;;;;;;;15.65;10.38;;;;;;;;;;4975130;28;20202;-47
2023/08/17 01:40:07;;;;;;;17.65;10.80;;;;;;;;;;4974620;28;20695;-54
2023/08/17 01:42:34;;;;;;;13.98;10.20;;;;;;;;;;4974554;28;20203;-47
2023/08/17 01:45:01;;;;;;;15.48;11.13;;;;;;;;;;4974182;28;20199;-48
2023/08/17 01:47:30;;;;;;;23.08;10.75;;;;;;;;;;4976187;28;20203;-48
2023/08/17 01:49:59;;;;;;;15.85;9.68;;;;;;;;;;4973851;28;20600;-46
2023/08/17 01:52:27;;;;;;;14.35;10.35;;;;;;;;;;4975711;28;20207;-47
2023/08/17 01:54:55;;;;;;;15.57;9.35;;;;;;;;;;4974314;28;20537;-47
2023/08/17 01:57:22;;;;;;;18.40;9.90;;;;;;;;;;4974593;28;20211;-47
2023/08/17 01:59:50;;;;;;;19.05;9.68;;;;;;;;;;4974465;28;20230;-48
2023/08/17 02:02:17;;;;;;;19.30;10.30;;;;;;;;;;4975643;28;20319;-47
2023/08/17 02:04:44;;;;;;;15.15;10.05;;;;;;;;;;4974352;28;20214;-48
2023/08/17 02:07:11;;;;;;;15.57;9.82;;;;;;;;;;4975214;28;20653;-47
2023/08/17 02:09:39;;;;;;;19.15;9.77;;;;;;;;;;4975293;28;20216;-50
2023/08/17 02:12:06;;;;;;;16.15;10.85;;;;;;;;;;4975374;28;20359;-46
2023/08/17 02:14:33;;;;;;;14.93;9.95;;;;;;;;;;4974021;28;20611;-48
2023/08/17 02:17:00;;;;;;;19.23;11.77;;;;;;;;;;4975127;28;20226;-47
2023/08/17 02:19:28;;;;;;;18.85;10.13;;;;;;;;;;4975384;28;20610;-48
2023/08/17 02:21:55;;;;;;;16.13;10.70;;;;;;;;;;4975050;28;20589;-47
2023/08/17 02:24:22;;;;;;;21.05;11.20;;;;;;;;;;4974990;28;20678;-49
2023/08/17 02:26:52;;;;;;;14.52;10.57;;;;;;;;;;4974152;28;20567;-48
2023/08/17 02:29:19;;;;;;;17.60;10.60;;;;;;;;;;4975285;28;20214;-47
2023/08/17 02:31:46;;;;;;;19.35;11.38;;;;;;;;;;4975071;28;20214;-47
2023/08/17 02:34:13;;;;;;;15.73;10.65;;;;;;;;;;4975125;28;20207;-47
2023/08/17 02:36:41;;;;;;;14.88;11.07;;;;;;;;;;4974833;28;20203;-48
2023/08/17 02:39:08;;;;;;;14.27;10.50;;;;;;;;;;4974958;28;20237;-48
2023/08/17 02:41:35;;;;;;;19.45;11.43;;;;;;;;;;4974571;28;20211;-47
2023/08/17 02:44:02;;;;;;;15.02;11.32;;;;;;;;;;4973675;28;20302;-47
2023/08/17 02:46:30;;;;;;;18.30;11.38;;;;;;;;;;4974908;28;20206;-48
2023/08/17 02:48:57;;;;;;;18.33;11.35;;;;;;;;;;4973305;28;20238;-47
2023/08/17 02:51:24;;;;;;;20.70;11.18;;;;;;;;;;4973201;28;20691;-47
2023/08/17 02:53:51;;;;;;;15.05;10.70;;;;;;;;;;4973524;28;20214;-47
2023/08/17 02:56:18;;;;;;;18.05;10.48;;;;;;;;;;4973327;28;20207;-47
2023/08/17 02:58:47;;;;;;;17.58;11.05;;;;;;;;;;4973247;28;20206;-50
2023/08/17 03:01:16;;;;;;;17.55;11.80;;;;;;;;;;4974273;28;20682;-47
2023/08/17 03:03:43;;;;;;;16.15;10.90;;;;;;;;;;4974287;28;20622;-47
2023/08/17 03:06:11;;;;;;;14.38;11.32;;;;;;;;;;4974593;28;20191;-47
2023/08/17 03:08:39;;;;;;;21.20;11.13;;;;;;;;;;4974240;28;20210;-49
2023/08/17 03:11:07;;;;;;;16.48;11.93;;;;;;;;;;4973251;28;20552;-48
2023/08/17 03:13:34;;;;;;;16.38;11.68;;;;;;;;;;4974298;28;20707;-47
2023/08/17 03:16:01;;;;;;;15.25;11.43;;;;;;;;;;4973108;28;20207;-47
2023/08/17 03:18:29;;;;;;;17.52;11.05;;;;;;;;;;4972991;28;20206;-47
2023/08/17 03:20:56;;;;;;;16.80;11.65;;;;;;;;;;4974028;28;20711;-47
2023/08/17 03:23:24;;;;;;;17.73;11.48;;;;;;;;;;4973345;28;20211;-47
2023/08/17 03:25:53;;;;;;;14.32;10.60;;;;;;;;;;4973081;28;20281;-48
2023/08/17 03:28:20;;;;;;;15.82;11.10;;;;;;;;;;4974375;28;20214;-47
2023/08/17 03:30:48;;;;;;;14.30;11.40;;;;;;;;;;4974547;28;20246;-47
2023/08/17 03:33:15;;;;;;;18.17;11.40;;;;;;;;;;4973109;28;20264;-46
2023/08/17 03:35:42;;;;;;;18.83;11.23;;;;;;;;;;4973051;28;20198;-48
2023/08/17 03:38:09;;;;;;;16.42;11.55;;;;;;;;;;4979077;28;20201;-46
2023/08/17 03:40:36;;;;;;;15.93;10.65;;;;;;;;;;4990530;28;20230;-47
2023/08/17 03:43:04;;;;;;;20.48;11.55;;;;;;;;;;4991556;28;20252;-47
2023/08/17 03:45:32;;;;;;;15.98;10.52;;;;;;;;;;4990323;28;20679;-48
2023/08/17 03:47:59;;;;;;;16.30;10.85;;;;;;;;;;4990414;28;20206;-46
2023/08/17 03:50:28;;;;;;;14.82;9.70;;;;;;;;;;4990422;28;20252;-46
2023/08/17 03:52:55;;;;;;;15.70;9.52;;;;;;;;;;4964293;28;20295;-47
2023/08/17 03:55:22;;;;;;;15.10;10.38;;;;;;;;;;4962178;28;20211;-47
2023/08/17 03:57:49;;;;;;;17.60;10.07;;;;;;;;;;4967147;28;20203;-47
2023/08/17 04:00:16;;;;;;;19.73;10.77;;;;;;;;;;4970802;28;20242;-47
2023/08/17 04:02:43;;;;;;;13.10;9.45;;;;;;;;;;4974319;28;20676;-47
2023/08/17 04:05:16;;;;;;;16.50;9.05;;;;;;;;;;4972876;28;20203;-47
2023/08/17 04:07:42;;;;;;;15.98;10.00;;;;;;;;;;4975696;28;20611;-46
2023/08/17 04:10:10;;;;;;;16.98;9.88;;;;;;;;;;4976265;28;20215;-47
2023/08/17 04:12:37;;;;;;;18.00;10.63;;;;;;;;;;4977661;28;20234;-46
2023/08/17 04:15:05;;;;;;;15.82;10.45;;;;;;;;;;4976442;28;20211;-46
2023/08/17 04:17:32;;;;;;;18.02;10.45;;;;;;;;;;4976347;28;20206;-46
2023/08/17 04:20:00;;;;;;;17.45;10.40;;;;;;;;;;4975758;28;20226;-46
2023/08/17 04:22:27;;;;;;;18.90;10.60;;;;;;;;;;4977180;28;20556;-46
2023/08/17 04:24:55;;;;;;;19.17;11.70;;;;;;;;;;4975897;28;20585;-46
2023/08/17 04:27:23;;;;;;;18.70;10.90;;;;;;;;;;4976338;28;20203;-47
2023/08/17 04:29:52;;;;;;;15.35;9.80;;;;;;;;;;4976205;28;20211;-46
2023/08/17 04:32:19;;;;;;;16.45;10.00;;;;;;;;;;4975943;28;20289;-46
2023/08/17 04:34:48;;;;;;;15.30;10.23;;;;;;;;;;4976281;28;20202;-46
2023/08/17 04:37:15;;;;;;;16.27;10.57;;;;;;;;;;4977048;28;20654;-47
2023/08/17 04:39:43;;;;;;;16.98;10.52;;;;;;;;;;4975705;28;20230;-46
2023/08/17 04:42:16;;;;;;;14.20;10.38;;;;;;;;;;4975840;28;20245;-46
2023/08/17 04:44:44;;;;;;;14.93;9.85;;;;;;;;;;4975681;28;20705;-46
2023/08/17 04:47:11;;;;;;;13.73;9.80;;;;;;;;;;4976853;28;20234;-46
2023/08/17 04:49:38;;;;;;;12.85;9.18;;;;;;;;;;4976153;28;20206;-46
2023/08/17 04:52:06;;;;;;;15.32;9.57;;;;;;;;;;4975306;28;20202;-47
2023/08/17 04:54:33;;;;;;;14.88;9.50;;;;;;;;;;4976078;28;20569;-46
2023/08/17 04:57:00;;;;;;;16.35;10.90;;;;;;;;;;4975677;28;20199;-47
2023/08/17 04:59:28;;;;;;;13.38;9.20;;;;;;;;;;4975689;28;20206;-50
2023/08/17 05:01:55;;;;;;;13.25;8.73;;;;;;;;;;4975525;28;20211;-46
2023/08/17 05:04:23;;;;;;;14.75;9.27;;;;;;;;;;4976511;28;20226;-46
2023/08/17 05:06:50;;;;;;;16.85;9.25;;;;;;;;;;4975272;28;20203;-46
2023/08/17 05:09:17;;;;;;;13.57;9.00;;;;;;;;;;4975425;28;20283;-46
2023/08/17 05:11:45;;;;;;;12.55;9.27;;;;;;;;;;4974249;28;20247;-46
2023/08/17 05:14:12;;;;;;;15.15;9.10;;;;;;;;;;4972844;28;20250;-46
2023/08/17 05:16:39;;;;;;;13.63;8.75;;;;;;;;;;4972435;28;20653;-46
2023/08/17 05:19:07;;;;;;;15.43;9.18;;;;;;;;;;4973109;28;20207;-47
2023/08/17 05:21:35;;;;;;;13.00;8.38;;;;;;;;;;4975709;28;20261;-48
2023/08/17 05:24:03;;;;;;;14.85;8.98;;;;;;;;;;4974844;28;20198;-46
2023/08/17 05:26:30;;;;;;;13.45;8.52;;;;;;;;;;4976299;28;20297;-49
2023/08/17 05:28:57;;;;;;;13.63;8.85;;;;;;;;;;4975049;28;20214;-47
2023/08/17 05:31:25;;;;;;;14.60;8.68;;;;;;;;;;4974801;28;20211;-46
2023/08/17 05:33:53;;;;;;;15.23;8.75;;;;;;;;;;4975178;28;20277;-49
2023/08/17 05:36:23;;;;;;;12.30;8.48;;;;;;;;;;4974707;28;20237;-46
2023/08/17 05:38:50;;;;;;;14.55;8.90;;;;;;;;;;4974951;28;20218;-48
2023/08/17 05:41:17;;;;;;;14.50;8.85;;;;;;;;;;4976010;28;20281;-46
2023/08/17 05:43:45;;;;;;;14.60;8.10;;;;;;;;;;4975864;28;20211;-47
2023/08/17 05:46:12;;;;;;;10.95;7.55;;;;;;;;;;4974441;28;20210;-51
2023/08/17 05:48:40;;;;;;;13.60;8.30;;;;;;;;;;4974783;28;20553;-51
2023/08/17 05:51:07;;;;;;;11.77;7.95;;;;;;;;;;4975625;28;20222;-49
2023/08/17 05:53:35;;;;;;;11.23;7.93;;;;;;;;;;4975870;28;20214;-46
2023/08/17 05:56:02;;;;;;;15.52;8.55;;;;;;;;;;4975442;28;20218;-45
2023/08/17 05:58:30;;;;;;;12.75;7.90;;;;;;;;;;4975593;28;20202;-47
2023/08/17 06:01:05;;;;;;;10.95;7.43;;;;;;;;;;4975291;28;20234;-47
2023/08/17 06:03:32;;;;;;;10.25;7.53;;;;;;;;;;4975433;28;20193;-46
2023/08/17 06:05:59;;;;;;;13.40;7.38;;;;;;;;;;4975460;28;20205;-46
2023/08/17 06:08:26;;;;;;;12.82;7.78;;;;;;;;;;4975280;28;20210;-47
2023/08/17 06:10:53;;;;;;;11.88;7.78;;;;;;;;;;4974180;28;20206;-46
2023/08/17 06:13:56;;;;;;;16.42;8.02;;;;;;;;;;4975757;28;20193;-45
2023/08/17 06:16:24;;;;;;;15.95;8.32;;;;;;;;;;4975423;28;20206;-45
2023/08/17 06:18:51;;;;;;;13.80;8.35;;;;;;;;;;4975297;28;20227;-47
2023/08/17 06:21:18;;;;;;;14.50;8.73;;;;;;;;;;4975086;28;20231;-46
2023/08/17 06:23:45;;;;;;;14.35;7.03;;;;;;;;;;4975563;28;20210;-46
2023/08/17 06:26:12;;;;;;;12.98;6.47;;;;;;;;;;4974976;28;20207;-47
2023/08/17 06:28:40;;;;;;;11.77;6.63;;;;;;;;;;4975277;28;20202;-46
2023/08/17 06:31:07;;;;;;;14.05;7.50;;;;;;;;;;4974983;28;20214;-45
2023/08/17 06:33:34;;;;;;;12.18;6.47;;;;;;;;;;4975050;28;20199;-48
2023/08/17 06:36:01;;;;;;;12.13;6.97;;;;;;;;;;4974919;28;20269;-46
2023/08/17 06:38:28;;;;;;;11.18;6.85;;;;;;;;;;4978947;28;20659;-47
2023/08/17 06:40:56;;;;;;;11.02;6.95;;;;;;;;;;4994366;28;20598;-46
2023/08/17 06:43:23;;;;;;;11.60;6.82;;;;;;;;;;4994360;28;20292;-49
2023/08/17 06:45:50;;;;;;;10.00;4.88;;;;;;;;;;4994084;28;20572;-48
2023/08/17 06:48:17;;;;;;;9.10;5.28;;;;;;;;;;4994162;28;20256;-47
2023/08/17 06:50:44;;;;;;;17.42;5.55;;;;;;;;;;4990111;28;20277;-49
2023/08/17 06:53:11;;;;;;;12.65;6.50;;;;;;;;;;4970653;28;20199;-51
2023/08/17 06:55:39;;;;;;;9.15;5.15;;;;;;;;;;4970674;28;20199;-46
2023/08/17 06:58:06;;;;;;;8.77;5.40;;;;;;;;;;4965141;28;20207;-46
2023/08/17 07:00:35;;;;;;;10.20;5.53;;;;;;;;;;4968351;28;20699;-46
2023/08/17 07:03:03;;;;;;;8.55;5.65;;;;;;;;;;4964555;28;20600;-46
2023/08/17 07:05:31;;;;;;;9.32;5.43;;;;;;;;;;4960540;28;20294;-48
2023/08/17 07:07:59;;;;;;;5.80;4.40;;;;;;;;;;4972427;28;20202;-48
2023/08/17 07:10:27;;;;;;;9.43;4.40;;;;;;;;;;4966580;28;20203;-48
2023/08/17 07:12:54;;;;;;;11.27;5.07;;;;;;;;;;4963898;28;20306;-46
2023/08/17 07:15:21;;;;;;;7.78;5.32;;;;;;;;;;4965101;28;20194;-45
2023/08/17 07:17:48;;;;;;;6.38;4.75;;;;;;;;;;4963746;28;20727;-46
2023/08/17 07:20:15;;;;;;;6.80;4.32;;;;;;;;;;4964034;28;20230;-48
2023/08/17 07:22:43;;;;;;;8.13;4.70;;;;;;;;;;4968539;28;20661;-50
2023/08/17 07:25:11;;;;;;;9.93;4.80;;;;;;;;;;4964962;28;20218;-47
2023/08/17 07:27:38;;;;;;;13.10;4.82;;;;;;;;;;4971834;28;20282;-50
2023/08/17 07:30:06;;;;;;;5.53;3.95;;;;;;;;;;4964361;28;20213;-46
2023/08/17 07:32:34;;;;;;;9.20;5.15;;;;;;;;;;4973642;28;20199;-46
2023/08/17 07:35:01;;;;;;;6.50;4.32;;;;;;;;;;4973836;28;20285;-49
2023/08/17 07:37:32;;;;;;;8.65;4.25;;;;;;;;;;4974093;28;20567;-49
2023/08/17 07:40:03;;;;;;;6.53;4.30;;;;;;;;;;4973565;28;20195;-53
2023/08/17 07:42:30;;;;;;;9.20;4.15;;;;;;;;;;4976319;28;20237;-52
2023/08/17 07:44:58;;;;;;;9.43;3.92;;;;;;;;;;4977157;28;20556;-49
2023/08/17 07:47:25;;;;;;;6.85;4.38;;;;;;;;;;4977010;28;20210;-52
2023/08/17 07:49:53;;;;;;;8.80;4.40;;;;;;;;;;4976870;28;20253;-51
2023/08/17 07:52:20;;;;;;;8.23;4.30;;;;;;;;;;4976490;28;20202;-50
2023/08/17 07:54:47;;;;;;;12.20;4.45;;;;;;;;;;4977082;28;20679;-49
2023/08/17 07:57:14;;;;;;;9.63;4.75;;;;;;;;;;4977101;28;20306;-51
2023/08/17 07:59:41;;;;;;;8.35;5.13;;;;;;;;;;4977313;28;20222;-51
2023/08/17 08:02:08;;;;;;;10.38;4.70;;;;;;;;;;4976171;28;20254;-48
2023/08/17 08:04:36;;;;;;;7.05;4.35;;;;;;;;;;4976675;28;20219;-52
2023/08/17 08:07:03;;;;;;;9.10;4.55;;;;;;;;;;4976847;28;20206;-49
2023/08/17 08:09:30;;;;;;;8.10;3.95;;;;;;;;;;4977392;28;20210;-50
2023/08/17 08:11:57;;;;;;;6.40;4.10;;;;;;;;;;4976662;28;20226;-49
2023/08/17 08:14:24;;;;;;;6.13;4.32;;;;;;;;;;4977178;28;20207;-49
2023/08/17 08:16:51;;;;;;;9.13;4.03;;;;;;;;;;4970902;28;20229;-49
2023/08/17 08:19:18;;;;;;;9.13;3.83;;;;;;;;;;4975954;28;20253;-51
2023/08/17 08:21:46;;;;;;;8.00;4.85;;;;;;;;;;4975416;28;20281;-52
2023/08/17 08:24:13;;;;;;;7.50;4.00;;;;;;;;;;4979565;28;20211;-49
2023/08/17 08:27:03;;;;;;;6.20;4.13;;;;;;;;;;4971828;28;20214;-48
2023/08/17 08:29:30;;;;;;;9.38;4.18;;;;;;;;;;4963939;28;20269;-50
2023/08/17 08:31:59;;;;;;;8.40;3.80;;;;;;;;;;4980513;28;20218;-50
2023/08/17 08:34:27;;;;;;;6.20;3.80;;;;;;;;;;4995148;28;20234;-51
2023/08/17 08:36:55;;;;;;;7.05;4.43;;;;;;;;;;4980836;28;20230;-52
2023/08/17 08:39:25;;;;;;;5.78;4.25;;;;;;;;;;4975571;28;20215;-48
2023/08/17 08:41:53;;;;;;;10.05;3.95;;;;;;;;;;4974704;28;20329;-50
2023/08/17 08:44:20;;;;;;;5.78;3.70;;;;;;;;;;4976318;28;20231;-50
2023/08/17 08:46:48;;;;;;;4.80;3.80;;;;;;;;;;4974794;28;20226;-48
2023/08/17 08:49:20;;;;;;;7.53;3.95;;;;;;;;;;4975851;28;20625;-50
2023/08/17 08:51:49;;;;;;;7.38;3.60;;;;;;;;;;4975034;28;20226;-52
2023/08/17 08:54:21;;;;;;;7.80;4.00;;;;;;;;;;4974192;28;20273;-53
2023/08/17 08:56:53;;;;;;;7.05;4.25;;;;;;;;;;4975054;28;20214;-49
2023/08/17 08:59:20;;;;;;;8.43;3.88;;;;;;;;;;4974682;28;20258;-50
2023/08/17 09:01:47;;;;;;;9.38;3.88;;;;;;;;;;4973011;28;20715;-52
2023/08/17 09:04:18;;;;;;;8.20;3.83;;;;;;;;;;4974620;28;20637;-53
2023/08/17 09:06:45;;;;;;;5.28;3.30;;;;;;;;;;4973911;28;20317;-48
2023/08/17 09:09:15;;;;;;;23.52;5.95;;;;;;;;;;4974113;28;20620;-52
2023/08/17 09:11:42;;;;;;;44.10;7.88;;;;;;;;;;4973291;28;20227;-49
2023/08/17 09:14:11;;;;;;;9.18;4.47;;;;;;;;;;4973546;28;20288;-51
2023/08/17 09:16:38;;;;;;;47.70;10.20;;;;;;;;;;4972118;28;20253;-49
2023/08/17 09:19:06;;;;;;;10.93;3.97;;;;;;;;;;4974504;28;20226;-49
2023/08/17 09:21:34;;;;;;;11.75;4.35;;;;;;;;;;4974225;28;20953;-52
2023/08/17 09:24:01;;;;;;;11.57;4.40;;;;;;;;;;4974776;28;20769;-48
2023/08/17 09:26:31;;;;;;;8.68;3.88;;;;;;;;;;4974885;28;20223;-52
2023/08/17 09:28:59;;;;;;;12.60;4.72;;;;;;;;;;4974617;28;20286;-50
2023/08/17 09:31:30;;;;;;;16.30;4.82;;;;;;;;;;4974741;28;20231;-50
2023/08/17 09:33:58;;;;;;;9.38;3.92;;;;;;;;;;4974715;28;20237;-48
2023/08/17 09:36:25;;;;;;;7.18;3.47;;;;;;;;;;4974021;28;20230;-50
2023/08/17 09:38:53;;;;;;;10.60;3.80;;;;;;;;;;4974334;28;20699;-50
2023/08/17 09:41:20;;;;;;;8.20;3.70;;;;;;;;;;4974105;28;20636;-53
2023/08/17 09:43:56;;;;;;;9.40;3.45;;;;;;;;;;4974493;28;20246;-48
2023/08/17 09:46:25;;;;;;;9.60;4.15;;;;;;;;;;4974266;28;20261;-50
2023/08/17 09:48:53;;;;;;;6.72;3.65;;;;;;;;;;4957766;28;20238;-49
2023/08/17 09:51:20;;;;;;;10.88;4.15;;;;;;;;;;4974044;28;20240;-50
2023/08/17 09:53:52;;;;;;;7.05;3.85;;;;;;;;;;4974035;28;20237;-47
2023/08/17 09:56:27;;;;;;;10.52;3.67;;;;;;;;;;4974137;28;20226;-52
2023/08/17 09:58:55;;;;;;;7.38;3.80;;;;;;;;;;4973066;28;20238;-50
2023/08/17 10:01:23;;;;;;;9.45;3.40;;;;;;;;;;4973611;28;20730;-52
2023/08/17 10:03:53;;;;;;;4.38;3.20;;;;;;;;;;4973860;28;20238;-49
2023/08/17 10:06:22;;;;;;;4.20;3.45;;;;;;;;;;4972875;28;20257;-52
2023/08/17 10:08:53;;;;;;;5.97;3.75;;;;;;;;;;4972926;28;20605;-50
2023/08/17 10:11:21;;;;;;;7.47;4.50;;;;;;;;;;4969889;28;20566;-50
2023/08/17 10:13:57;;;;;;;11.80;4.53;;;;;;;;;;4962610;28;20246;-53
2023/08/17 10:16:35;;;;;;;8.63;4.22;;;;;;;;;;4960444;28;20227;-51
2023/08/17 10:19:15;;;;;;;11.38;4.13;;;;;;;;;;4953735;28;20219;-53
2023/08/17 10:21:56;;;;;;;7.10;3.85;;;;;;;;;;4961510;28;20230;-53
2023/08/17 10:24:24;;;;;;;8.50;4.45;;;;;;;;;;4972926;28;20238;-52
2023/08/17 10:26:51;;;;;;;5.55;3.63;;;;;;;;;;4973486;28;20230;-55
2023/08/17 10:29:23;;;;;;;11.05;4.35;;;;;;;;;;4972651;28;20230;-50
2023/08/17 10:31:50;;;;;;;7.55;4.18;;;;;;;;;;4972570;28;20234;-54
2023/08/17 10:34:18;;;;;;;8.65;4.43;;;;;;;;;;4973457;28;20733;-55
2023/08/17 10:36:46;;;;;;;7.95;4.00;;;;;;;;;;4973357;28;20222;-54
2023/08/17 10:39:25;;;;;;;11.15;4.00;;;;;;;;;;4973788;28;20305;-55
2023/08/17 10:41:57;;;;;;;8.65;4.03;;;;;;;;;;4972884;28;20626;-54
2023/08/17 10:44:47;;;;;;;7.00;4.57;;;;;;;;;;4968088;28;20231;-50
2023/08/17 10:47:25;;;;;;;8.20;4.80;;;;;;;;;;4973392;28;20218;-49
2023/08/17 10:50:02;;;;;;;7.47;4.20;;;;;;;;;;4973482;28;20234;-51
2023/08/17 10:52:31;;;;;;;7.75;4.53;;;;;;;;;;4973717;28;20573;-50
2023/08/17 10:55:05;;;;;;;11.93;4.50;;;;;;;;;;4973018;28;20669;-50
2023/08/17 10:57:36;;;;;;;8.32;4.65;;;;;;;;;;4972028;28;20242;-53
2023/08/17 11:00:13;;;;;;;10.10;4.38;;;;;;;;;;4972370;28;20233;-49
2023/08/17 11:03:00;;;;;;;8.15;4.63;;;;;;;;;;4973459;28;20245;-50
2023/08/17 11:05:52;;;;;;;6.70;3.90;;;;;;;;;;4963629;28;20236;-50
2023/08/17 11:08:21;;;;;;;6.68;3.70;;;;;;;;;;4972858;28;20703;-52
2023/08/17 11:10:59;;;;;;;4.90;3.55;;;;;;;;;;4973680;28;20738;-51
2023/08/17 11:13:48;;;;;;;5.18;3.38;;;;;;;;;;4972478;28;20582;-50
2023/08/17 11:16:19;;;;;;;6.90;3.67;;;;;;;;;;4973701;28;20578;-49
2023/08/17 11:18:47;;;;;;;3.97;3.50;;;;;;;;;;4977813;28;20265;-49
2023/08/17 11:21:17;;;;;;;7.90;3.78;;;;;;;;;;4977437;28;20233;-49
2023/08/17 11:23:46;;;;;;;9.48;3.45;;;;;;;;;;4957456;28;20207;-50
2023/08/17 11:26:17;;;;;;;5.75;3.70;;;;;;;;;;4957061;28;20207;-50
2023/08/17 11:28:44;;;;;;;5.20;3.85;;;;;;;;;;4976844;28;20191;-49
2023/08/17 11:31:15;;;;;;;5.78;3.60;;;;;;;;;;4970866;28;20246;-50
2023/08/17 11:33:44;;;;;;;5.03;3.63;;;;;;;;;;4976789;28;20708;-47
2023/08/17 11:44:58;;;;;;;9.25;3.85;;;;;;;;;;4964762;28;20582;-47
2023/08/17 11:47:26;;;;;;;11.35;4.30;;;;;;;;;;4965475;28;20230;-47
2023/08/17 11:50:00;;;;;;;7.80;4.03;;;;;;;;;;4975843;28;20218;-47
2023/08/17 11:52:45;;;;;;;5.55;3.65;;;;;;;;;;4981076;28;20222;-48
2023/08/17 11:55:17;;;;;;;6.90;3.80;;;;;;;;;;4975982;28;20227;-46
2023/08/17 11:57:45;;;;;;;11.05;3.97;;;;;;;;;;4976142;28;20223;-48
2023/08/17 12:00:19;;;;;;;9.70;3.85;;;;;;;;;;4976403;28;20226;-46
2023/08/17 12:02:50;;;;;;;5.70;3.72;;;;;;;;;;4966738;28;20249;-47
2023/08/17 12:05:26;;;;;;;9.70;3.58;;;;;;;;;;4957177;28;20262;-46
2023/08/17 12:07:54;;;;;;;5.78;3.72;;;;;;;;;;4967799;28;20222;-47
2023/08/17 12:10:24;;;;;;;6.80;4.10;;;;;;;;;;4975570;28;20230;-49
2023/08/17 12:12:53;;;;;;;9.10;4.50;;;;;;;;;;4976094;28;20695;-48
2023/08/17 12:15:20;;;;;;;6.72;3.90;;;;;;;;;;4976411;28;20222;-45
2023/08/17 12:17:48;;;;;;;5.65;3.35;;;;;;;;;;4976062;28;20587;-46
2023/08/17 12:20:20;;;;;;;7.95;4.00;;;;;;;;;;4976186;28;20265;-47
2023/08/17 12:22:48;;;;;;;5.95;3.83;;;;;;;;;;4976354;28;20650;-46
2023/08/17 12:25:15;;;;;;;5.10;3.67;;;;;;;;;;4976118;28;20230;-46
2023/08/17 12:27:43;;;;;;;5.07;3.33;;;;;;;;;;4975494;28;20249;-46
2023/08/17 12:30:25;;;;;;;6.57;2.92;;;;;;;;;;4975865;28;20695;-47
2023/08/17 12:32:52;;;;;;;12.48;3.88;;;;;;;;;;4976088;28;20222;-46
2023/08/17 12:35:23;;;;;;;4.47;3.80;;;;;;;;;;4976079;28;22169;-46
2023/08/17 12:37:54;;;;;;;7.82;3.50;;;;;;;;;;4976096;28;20257;-47
2023/08/17 12:40:21;;;;;;;5.68;3.67;;;;;;;;;;4975784;28;20242;-48
2023/08/17 12:42:49;;;;;;;4.95;3.40;;;;;;;;;;4975589;28;20239;-46
2023/08/17 12:45:16;;;;;;;3.90;3.35;;;;;;;;;;4975444;28;20222;-46
2023/08/17 12:47:44;;;;;;;8.43;3.40;;;;;;;;;;4975578;28;20219;-47
2023/08/17 12:50:11;;;;;;;10.90;3.22;;;;;;;;;;4975918;28;20269;-47
2023/08/17 12:52:38;;;;;;;8.27;3.50;;;;;;;;;;4974786;28;20230;-51
2023/08/17 12:55:06;;;;;;;6.82;3.30;;;;;;;;;;4975569;28;20229;-46
2023/08/17 12:57:33;;;;;;;7.10;3.47;;;;;;;;;;4974626;28;20227;-51
2023/08/17 13:00:00;;;;;;;4.63;3.50;;;;;;;;;;4975386;28;20229;-51
2023/08/17 13:02:28;;;;;;;4.65;3.25;;;;;;;;;;4975156;28;20231;-48
2023/08/17 13:04:56;;;;;;;11.25;3.30;;;;;;;;;;4955905;28;20223;-48
2023/08/17 13:07:23;;;;;;;9.00;3.80;;;;;;;;;;4958738;28;20222;-48
2023/08/17 13:09:50;;;;;;;7.10;3.58;;;;;;;;;;4975225;28;20231;-50
2023/08/17 13:12:17;;;;;;;9.43;4.18;;;;;;;;;;4974590;28;20606;-48
2023/08/17 13:14:44;;;;;;;4.68;3.58;;;;;;;;;;4975117;28;20314;-52
2023/08/17 13:17:14;;;;;;;8.23;3.53;;;;;;;;;;4975041;28;20231;-50
2023/08/17 13:19:41;;;;;;;4.68;3.30;;;;;;;;;;4975165;28;20226;-50
2023/08/17 13:22:08;;;;;;;3.80;2.97;;;;;;;;;;4974502;28;20242;-50
2023/08/17 13:24:35;;;;;;;8.15;3.33;;;;;;;;;;4974915;28;20226;-50
2023/08/17 13:27:03;;;;;;;4.40;3.20;;;;;;;;;;4974277;28;20227;-50
2023/08/17 13:29:30;;;;;;;5.50;3.50;;;;;;;;;;4974802;28;20230;-51
2023/08/17 13:31:57;;;;;;;3.78;2.92;;;;;;;;;;4974928;28;20234;-54
2023/08/17 13:34:24;;;;;;;5.05;3.13;;;;;;;;;;4974600;28;20230;-53
2023/08/17 13:36:51;;;;;;;4.75;3.30;;;;;;;;;;4974181;28;20226;-53
2023/08/17 13:39:18;;;;;;;7.30;2.65;;;;;;;;;;4973871;28;20230;-51
2023/08/17 13:41:45;;;;;;;4.57;2.53;;;;;;;;;;4974411;28;20230;-53
2023/08/17 13:44:12;;;;;;;8.35;2.63;;;;;;;;;;4974711;28;20229;-52
2023/08/17 13:46:40;;;;;;;3.90;2.00;;;;;;;;;;4970271;28;20234;-49
2023/08/17 13:49:07;;;;;;;2.88;2.10;;;;;;;;;;4965327;28;20263;-46
2023/08/17 13:51:34;;;;;;;3.40;2.20;;;;;;;;;;4974394;28;20235;-48
2023/08/17 13:54:01;;;;;;;4.78;2.00;;;;;;;;;;4974505;28;20227;-47
2023/08/17 13:56:29;;;;;;;8.50;2.45;;;;;;;;;;4974493;28;20285;-49
2023/08/17 13:58:56;;;;;;;3.05;2.40;;;;;;;;;;4974053;28;20235;-46
2023/08/17 14:01:23;;;;;;;3.90;2.53;;;;;;;;;;4974931;28;20594;-50
2023/08/17 14:03:51;;;;;;;3.78;2.50;;;;;;;;;;4973124;28;20293;-47
2023/08/17 14:06:18;;;;;;;4.22;2.42;;;;;;;;;;4974158;28;20242;-47
2023/08/17 14:08:45;;;;;;;4.28;2.53;;;;;;;;;;4974402;28;20223;-50
2023/08/17 14:11:12;;;;;;;4.78;2.63;;;;;;;;;;4974059;28;20703;-50
2023/08/17 14:13:39;;;;;;;7.53;2.38;;;;;;;;;;4973643;28;20578;-52
2023/08/17 14:16:07;;;;;;;4.57;2.42;;;;;;;;;;4973923;28;20278;-55
2023/08/17 14:18:34;;;;;;;5.32;2.53;;;;;;;;;;4974188;28;20235;-49
2023/08/17 14:21:02;;;;;;;4.28;2.90;;;;;;;;;;4970867;28;20249;-47
2023/08/17 14:23:29;;;;;;;3.88;2.88;;;;;;;;;;4973809;28;20329;-52
2023/08/17 14:25:56;;;;;;;5.78;2.55;;;;;;;;;;4974174;28;20249;-47
2023/08/17 14:28:23;;;;;;;3.50;2.70;;;;;;;;;;4973715;28;20225;-47
2023/08/17 14:30:50;;;;;;;4.00;3.00;;;;;;;;;;4974198;28;20679;-51
2023/08/17 14:33:19;;;;;;;6.75;2.67;;;;;;;;;;4974059;28;20255;-49
2023/08/17 14:35:47;;;;;;;5.35;2.60;;;;;;;;;;4971906;28;20239;-49
2023/08/17 14:38:14;;;;;;;13.57;2.40;;;;;;;;;;4967762;28;20306;-47
2023/08/17 14:40:45;;;;;;;5.88;2.80;;;;;;;;;;4965598;28;20235;-52
2023/08/17 14:43:16;;;;;;;2.90;2.58;;;;;;;;;;4972695;28;20233;-46
2023/08/17 14:45:43;;;;;;;6.78;2.55;;;;;;;;;;4973667;28;20313;-49
2023/08/17 14:48:10;;;;;;;5.80;2.97;;;;;;;;;;4973594;28;20242;-47
2023/08/17 14:50:38;;;;;;;3.95;2.97;;;;;;;;;;4965331;28;20242;-47